Time;durP1;ratioP1;P1;durP2;ratioP2;P2;SDS_P1;SDS_P2;PMS_P1;PMS_P2;Temp;Humidity;BMP_temperature;BMP_pressure;BME280_temperature;BME280_humidity;BME280_pressure;Samples;Min_cycle;Max_cycle;Signal;HPM_P1;HPM_P2
2021/01/05 05:00:24;;;;;;;11.32;9.00;;;2.90;99.90;;;;;;5950408;23;20248;31
2021/01/05 05:03:03;;;;;;;14.38;9.38;;;2.90;99.90;;;;;;4896861;29;20230;-71
2021/01/05 05:05:40;;;;;;;13.30;9.13;;;2.90;99.90;;;;;;4901627;29;20656;-70
2021/01/05 05:08:23;;;;;;;16.63;10.13;;;2.90;99.90;;;;;;4900395;29;20203;-71
2021/01/05 05:10:53;;;;;;;15.25;9.95;;;2.90;99.90;;;;;;4900064;29;20698;-71
2021/01/05 05:13:28;;;;;;;15.10;10.02;;;2.90;99.90;;;;;;4899131;29;20238;-73
2021/01/05 05:16:05;;;;;;;15.90;9.80;;;2.90;99.90;;;;;;4899568;29;20326;-73
2021/01/05 05:18:42;;;;;;;13.52;8.57;;;2.90;99.90;;;;;;4898946;29;20211;-72
2021/01/05 05:21:27;;;;;;;16.92;10.80;;;2.90;99.90;;;;;;4897825;29;20389;-72
2021/01/05 05:24:03;;;;;;;12.80;9.43;;;2.90;99.90;;;;;;4899143;29;20199;-73
2021/01/05 05:26:38;;;;;;;15.90;10.43;;;2.90;99.90;;;;;;4899431;29;20211;-73
2021/01/05 05:29:12;;;;;;;17.23;10.63;;;2.90;99.90;;;;;;4898009;29;20657;-72
2021/01/05 05:31:40;;;;;;;15.75;11.10;;;2.90;99.90;;;;;;4901607;29;20234;-71
2021/01/05 05:34:17;;;;;;;17.50;10.30;;;2.90;99.90;;;;;;4901539;29;20203;-73
2021/01/05 05:37:12;;;;;;;15.45;9.88;;;2.90;99.90;;;;;;4901091;29;20203;-72
2021/01/05 05:39:57;;;;;;;18.48;10.25;;;2.90;99.90;;;;;;4901087;29;20227;-73
2021/01/05 05:43:03;;;;;;;14.65;9.40;;;2.90;99.90;;;;;;4894154;29;20291;-72
2021/01/05 05:45:33;;;;;;;22.02;11.82;;;3.00;99.90;;;;;;4900289;29;20210;-72
2021/01/05 05:48:05;;;;;;;18.27;11.40;;;3.00;99.90;;;;;;4899632;29;20290;-72
2021/01/05 05:50:40;;;;;;;17.67;10.85;;;3.00;99.90;;;;;;4900062;29;20287;-73
2021/01/05 05:53:13;;;;;;;15.73;10.93;;;3.00;99.90;;;;;;4898854;29;20221;-73
2021/01/05 05:55:46;;;;;;;15.30;10.57;;;3.00;99.90;;;;;;4898975;29;20226;-72
2021/01/05 05:58:15;;;;;;;18.55;11.80;;;3.00;99.90;;;;;;4898144;29;20574;-74
2021/01/05 06:00:45;;;;;;;16.50;10.25;;;3.00;99.90;;;;;;4896510;29;20663;-69
2021/01/05 06:03:15;;;;;;;18.50;10.75;;;3.00;99.90;;;;;;4897207;29;20207;-69
2021/01/05 06:05:43;;;;;;;20.45;12.25;;;3.00;99.90;;;;;;4896621;29;20236;-69
2021/01/05 06:08:12;;;;;;;15.70;10.02;;;3.00;99.90;;;;;;4896680;29;20388;-69
2021/01/05 06:10:38;;;;;;;15.60;10.73;;;3.00;99.90;;;;;;4896967;29;20227;-69
2021/01/05 06:13:05;;;;;;;13.52;10.80;;;3.00;99.90;;;;;;4896680;29;20211;-69
2021/01/05 06:15:33;;;;;;;15.68;10.55;;;3.00;99.90;;;;;;4896339;29;20220;-69
2021/01/05 06:17:59;;;;;;;16.48;10.38;;;3.00;99.90;;;;;;4896474;29;20222;-69
2021/01/05 06:20:26;;;;;;;13.95;10.10;;;3.00;99.90;;;;;;4897361;29;20306;-68
2021/01/05 06:22:52;;;;;;;12.90;10.18;;;3.00;99.90;;;;;;4899661;29;20207;-68
2021/01/05 06:25:19;;;;;;;13.35;9.82;;;3.00;99.90;;;;;;4900396;29;20218;-68
2021/01/05 06:27:45;;;;;;;19.38;11.43;;;3.00;99.90;;;;;;4900118;29;20247;-69
2021/01/05 06:30:12;;;;;;;18.20;10.20;;;3.00;99.90;;;;;;4900717;29;20270;-69
2021/01/05 06:32:38;;;;;;;17.55;10.75;;;3.00;99.90;;;;;;4899390;29;20657;-68
2021/01/05 06:35:06;;;;;;;20.17;12.30;;;3.10;99.90;;;;;;4898568;29;20203;-69
2021/01/05 06:37:33;;;;;;;16.65;8.73;;;3.00;99.90;;;;;;4899725;29;20267;-68
2021/01/05 06:39:59;;;;;;;13.35;9.68;;;3.10;99.90;;;;;;4900119;29;20230;-69
2021/01/05 06:42:25;;;;;;;13.00;9.25;;;3.10;99.90;;;;;;4899697;29;20555;-68
2021/01/05 06:44:51;;;;;;;10.05;8.00;;;3.00;99.90;;;;;;4899974;29;20219;-68
2021/01/05 06:47:18;;;;;;;16.75;10.23;;;3.00;99.90;;;;;;4879160;29;20224;-68
2021/01/05 06:49:44;;;;;;;15.05;10.23;;;3.10;99.90;;;;;;4893478;29;20208;-69
2021/01/05 06:52:10;;;;;;;15.43;10.25;;;3.10;99.90;;;;;;4897874;29;20235;-69
2021/01/05 06:54:37;;;;;;;15.65;10.10;;;3.10;99.90;;;;;;4900160;29;20217;-69
2021/01/05 06:57:04;;;;;;;14.65;9.65;;;3.10;99.90;;;;;;4900173;29;20207;-69
2021/01/05 06:59:30;;;;;;;14.82;8.77;;;3.10;99.90;;;;;;4900318;29;20558;-69
2021/01/05 07:01:58;;;;;;;14.55;9.35;;;3.10;99.90;;;;;;4899516;29;20231;-69
2021/01/05 07:04:24;;;;;;;11.15;8.60;;;3.10;99.90;;;;;;4899955;29;20655;-70
2021/01/05 07:06:51;;;;;;;11.73;7.90;;;3.10;99.90;;;;;;4899473;29;20219;-69
2021/01/05 07:09:19;;;;;;;14.52;9.07;;;3.10;99.90;;;;;;4900011;29;20662;-70
2021/01/05 07:11:48;;;;;;;17.05;9.65;;;3.10;99.90;;;;;;4900127;29;20223;-70
2021/01/05 07:14:15;;;;;;;10.50;8.10;;;3.10;99.90;;;;;;4902195;29;20227;-72
2021/01/05 07:16:42;;;;;;;11.88;8.38;;;3.10;99.90;;;;;;4898189;29;20214;-70
2021/01/05 07:19:08;;;;;;;15.68;8.30;;;3.10;99.90;;;;;;4899671;29;20290;-70
2021/01/05 07:21:35;;;;;;;11.60;8.70;;;3.10;99.90;;;;;;4899003;29;20329;-71
2021/01/05 07:24:01;;;;;;;11.90;8.95;;;3.20;99.90;;;;;;4899476;29;20207;-71
2021/01/05 07:26:27;;;;;;;14.43;10.05;;;3.20;99.90;;;;;;4898934;29;20326;-71
2021/01/05 07:28:54;;;;;;;14.20;8.02;;;3.20;99.90;;;;;;4898982;29;20210;-70
2021/01/05 07:31:20;;;;;;;10.70;8.73;;;3.20;99.90;;;;;;4898944;29;20231;-70
2021/01/05 07:33:46;;;;;;;13.55;8.73;;;3.20;99.90;;;;;;4895617;29;20216;-70
2021/01/05 07:36:23;;;;;;;14.35;8.65;;;3.20;99.90;;;;;;4891315;29;20215;-70
2021/01/05 07:38:49;;;;;;;8.18;7.18;;;3.20;99.90;;;;;;4888519;29;20211;-70
2021/01/05 07:41:15;;;;;;;9.20;7.50;;;3.20;99.90;;;;;;4898681;29;20242;-70
2021/01/05 07:43:41;;;;;;;12.45;9.07;;;3.20;99.90;;;;;;4898578;29;20211;-70
2021/01/05 07:46:08;;;;;;;11.18;8.85;;;3.20;99.90;;;;;;4896445;29;20214;-70
2021/01/05 07:48:34;;;;;;;11.13;8.40;;;3.20;99.90;;;;;;4897980;29;20306;-69
2021/01/05 07:51:00;;;;;;;12.48;8.63;;;3.20;99.90;;;;;;4897910;29;20219;-70
2021/01/05 07:53:26;;;;;;;12.45;8.30;;;3.20;99.90;;;;;;4896858;29;20317;-70
2021/01/05 07:55:53;;;;;;;8.25;6.90;;;3.20;99.90;;;;;;4898959;29;20199;-69
2021/01/05 07:58:19;;;;;;;12.43;8.68;;;3.30;99.90;;;;;;4898601;29;20211;-70
2021/01/05 08:00:45;;;;;;;10.55;8.45;;;3.20;99.90;;;;;;4898661;29;20397;-69
2021/01/05 08:03:12;;;;;;;9.63;7.88;;;3.20;99.90;;;;;;4899031;29;20225;-69
2021/01/05 08:05:38;;;;;;;14.55;9.57;;;3.30;99.90;;;;;;4898278;29;20203;-70
2021/01/05 08:08:05;;;;;;;13.70;8.75;;;3.30;99.90;;;;;;4892381;29;20215;-70
2021/01/05 08:10:33;;;;;;;15.15;8.60;;;3.30;99.90;;;;;;4891832;29;20628;-69
2021/01/05 08:13:01;;;;;;;16.52;10.88;;;3.30;99.90;;;;;;4898876;29;20207;-69
2021/01/05 08:15:29;;;;;;;12.93;8.38;;;3.30;99.90;;;;;;4900949;29;20679;-69
2021/01/05 08:17:55;;;;;;;13.15;10.43;;;3.30;99.90;;;;;;4898742;29;20261;-69
2021/01/05 08:20:25;;;;;;;14.40;8.30;;;3.40;99.90;;;;;;4898099;29;20275;-70
2021/01/05 08:22:51;;;;;;;14.75;8.75;;;3.40;99.90;;;;;;4897969;29;20207;-70
2021/01/05 08:25:19;;;;;;;12.57;8.13;;;3.30;99.90;;;;;;4899861;29;20218;-70
2021/01/05 08:27:47;;;;;;;14.88;10.02;;;3.30;99.90;;;;;;4911379;29;20203;-70
2021/01/05 08:30:17;;;;;;;11.25;8.18;;;3.40;99.90;;;;;;4898407;29;20570;-69
2021/01/05 08:32:43;;;;;;;12.82;9.02;;;3.40;99.90;;;;;;4897578;29;20211;-69
2021/01/05 08:35:11;;;;;;;13.98;10.27;;;3.40;99.90;;;;;;4897974;29;20215;-69
2021/01/05 08:37:38;;;;;;;9.63;7.97;;;3.40;99.90;;;;;;4897799;29;20208;-70
2021/01/05 08:40:08;;;;;;;13.48;8.40;;;3.40;99.90;;;;;;4897584;29;20714;-69
2021/01/05 08:42:34;;;;;;;17.38;9.45;;;3.40;99.90;;;;;;4897427;29;20271;-69
2021/01/05 08:45:00;;;;;;;12.15;8.77;;;3.40;99.90;;;;;;4897222;29;20215;-69
2021/01/05 08:47:26;;;;;;;15.00;8.95;;;3.30;99.90;;;;;;4897304;29;20587;-70
2021/01/05 08:49:52;;;;;;;15.00;8.98;;;3.40;99.90;;;;;;4897782;29;20216;-70
2021/01/05 08:52:19;;;;;;;15.88;9.35;;;3.40;99.90;;;;;;4890500;29;20287;-69
2021/01/05 08:54:46;;;;;;;13.50;8.80;;;3.40;99.90;;;;;;4896982;29;20203;-70
2021/01/05 08:57:14;;;;;;;18.10;9.45;;;3.40;99.90;;;;;;4897436;29;20211;-70
2021/01/05 08:59:40;;;;;;;16.30;9.68;;;3.40;99.90;;;;;;4897453;29;20231;-69
2021/01/05 09:02:08;;;;;;;12.77;9.57;;;3.40;99.90;;;;;;4896508;29;20239;-69
2021/01/05 09:04:34;;;;;;;14.95;9.32;;;3.40;99.90;;;;;;4897269;29;20212;-69
2021/01/05 09:07:01;;;;;;;14.32;10.18;;;3.40;99.90;;;;;;4896916;29;20630;-70
2021/01/05 09:09:27;;;;;;;13.75;8.77;;;3.50;99.90;;;;;;4897086;29;20207;-69
2021/01/05 09:11:56;;;;;;;14.38;9.00;;;3.50;99.90;;;;;;4896794;29;20223;-69
2021/01/05 09:14:23;;;;;;;14.95;10.25;;;3.50;99.90;;;;;;4896634;29;20207;-69
2021/01/05 09:16:56;;;;;;;16.13;10.68;;;3.50;99.90;;;;;;4897047;29;20667;-69
2021/01/05 09:19:22;;;;;;;18.23;10.23;;;3.60;99.90;;;;;;4895293;29;20214;-69
2021/01/05 09:21:48;;;;;;;15.80;10.38;;;3.60;99.90;;;;;;4896094;29;20239;-69
2021/01/05 09:24:15;;;;;;;18.55;9.52;;;3.60;99.90;;;;;;4896964;29;20211;-70
2021/01/05 09:26:41;;;;;;;14.00;9.05;;;3.60;99.90;;;;;;4896793;29;20218;-70
2021/01/05 09:29:12;;;;;;;15.65;10.27;;;3.60;99.90;;;;;;4896836;29;20211;-69
2021/01/05 09:31:42;;;;;;;16.17;8.43;;;3.60;99.90;;;;;;4896557;29;20282;-70
2021/01/05 09:34:09;;;;;;;15.02;8.68;;;3.70;99.90;;;;;;4896979;29;20222;-70
2021/01/05 09:36:35;;;;;;;14.10;8.65;;;3.70;99.90;;;;;;4897162;29;20211;-70
2021/01/05 09:39:04;;;;;;;17.02;8.60;;;3.70;99.90;;;;;;4895855;29;20207;-70
2021/01/05 09:41:35;;;;;;;13.43;9.35;;;3.70;99.90;;;;;;4896428;29;20620;-70
2021/01/05 09:44:01;;;;;;;15.63;8.90;;;3.70;99.90;;;;;;4894931;29;20599;-70
2021/01/05 09:46:28;;;;;;;15.25;9.60;;;3.70;99.90;;;;;;4897333;29;20560;-70
2021/01/05 09:48:54;;;;;;;9.80;6.97;;;3.70;99.90;;;;;;4896489;29;20210;-70
2021/01/05 09:51:25;;;;;;;12.18;8.43;;;3.80;99.90;;;;;;4895796;29;20227;-70
2021/01/05 09:53:52;;;;;;;15.98;10.23;;;3.80;99.90;;;;;;4894875;29;20311;-69
2021/01/05 09:56:18;;;;;;;12.70;9.02;;;3.80;99.90;;;;;;4896211;29;20223;-69
2021/01/05 09:58:45;;;;;;;13.85;9.13;;;3.80;99.90;;;;;;4895436;29;20306;-70
2021/01/05 10:01:11;;;;;;;13.13;7.93;;;3.90;99.90;;;;;;4896767;29;20242;-71
2021/01/05 10:03:38;;;;;;;11.75;7.95;;;3.90;99.90;;;;;;4896193;29;20211;-70
2021/01/05 10:06:05;;;;;;;12.10;9.27;;;3.90;99.90;;;;;;4897015;29;20215;-74
2021/01/05 10:08:31;;;;;;;12.93;8.15;;;3.90;99.90;;;;;;4895478;29;20255;-73
2021/01/05 10:10:58;;;;;;;8.15;6.90;;;3.90;99.90;;;;;;4896204;29;20263;-71
2021/01/05 10:13:24;;;;;;;8.50;6.95;;;3.90;99.90;;;;;;4894881;29;20266;-74
2021/01/05 10:15:50;;;;;;;11.52;8.35;;;3.90;99.90;;;;;;4895015;29;20270;-73
2021/01/05 10:18:17;;;;;;;10.45;7.57;;;4.00;99.90;;;;;;4895917;29;20222;-74
2021/01/05 10:20:43;;;;;;;9.88;7.18;;;4.00;99.90;;;;;;4895739;29;20230;-73
2021/01/05 10:23:10;;;;;;;7.97;5.63;;;4.00;99.90;;;;;;4895761;29;20214;-74
2021/01/05 10:25:36;;;;;;;8.15;6.78;;;4.00;99.90;;;;;;4897528;29;20260;-73
2021/01/05 10:28:02;;;;;;;7.88;6.32;;;4.00;99.90;;;;;;4896716;29;20225;-70
2021/01/05 10:30:28;;;;;;;7.80;6.50;;;4.00;99.90;;;;;;4897684;29;20643;-68
2021/01/05 10:32:54;;;;;;;9.07;6.82;;;4.00;99.90;;;;;;4906778;29;20214;-68
2021/01/05 10:35:23;;;;;;;8.10;6.95;;;4.00;99.90;;;;;;4907661;29;20203;-68
2021/01/05 10:37:50;;;;;;;8.52;7.13;;;4.00;99.90;;;;;;4904942;29;20215;-68
2021/01/05 10:40:19;;;;;;;9.00;6.05;;;4.00;99.90;;;;;;4902641;29;20667;-68
2021/01/05 10:42:47;;;;;;;8.13;6.90;;;4.00;99.90;;;;;;4905243;29;20258;-69
2021/01/05 10:45:16;;;;;;;11.63;7.90;;;4.00;99.90;;;;;;4922371;29;20206;-70
2021/01/05 10:47:42;;;;;;;10.20;6.43;;;4.00;99.90;;;;;;4914747;29;20255;-70
2021/01/05 10:50:11;;;;;;;8.52;6.70;;;4.00;99.90;;;;;;4896532;29;20204;-69
2021/01/05 10:52:37;;;;;;;7.00;6.25;;;4.00;99.90;;;;;;4894562;29;20207;-69
2021/01/05 10:55:06;;;;;;;8.30;6.72;;;4.00;99.90;;;;;;4894108;29;20215;-69
2021/01/05 10:57:32;;;;;;;10.25;6.22;;;4.10;99.90;;;;;;4895751;29;20219;-68
2021/01/05 10:59:59;;;;;;;9.20;6.13;;;4.10;99.90;;;;;;4895934;29;20227;-70
2021/01/05 11:02:25;;;;;;;8.77;6.57;;;4.10;99.90;;;;;;4895625;29;20307;-69
2021/01/05 11:04:51;;;;;;;9.00;6.95;;;4.10;99.90;;;;;;4896111;29;20259;-69
2021/01/05 11:07:18;;;;;;;6.78;5.45;;;4.10;99.90;;;;;;4897963;29;20414;-67
2021/01/05 11:09:45;;;;;;;10.82;8.27;;;4.10;99.90;;;;;;4899566;29;20206;-67
2021/01/05 11:12:13;;;;;;;7.93;6.18;;;4.10;99.90;;;;;;4898848;29;20239;-68
2021/01/05 11:14:41;;;;;;;9.82;6.88;;;4.10;99.90;;;;;;4886175;29;20211;-68
2021/01/05 11:17:08;;;;;;;6.95;5.85;;;4.10;99.90;;;;;;4899550;29;20214;-68
2021/01/05 11:19:35;;;;;;;7.65;6.65;;;4.10;99.90;;;;;;4899013;29;20207;-68
2021/01/05 11:22:02;;;;;;;8.48;7.57;;;4.10;99.90;;;;;;4898807;29;20239;-69
2021/01/05 11:24:29;;;;;;;10.43;7.68;;;4.20;99.90;;;;;;4899069;29;20219;-68
2021/01/05 11:26:57;;;;;;;7.63;6.82;;;4.10;99.90;;;;;;4899858;29;20223;-68
2021/01/05 11:29:25;;;;;;;9.00;6.90;;;4.20;99.90;;;;;;4898655;29;20223;-68
2021/01/05 11:31:55;;;;;;;6.88;6.20;;;4.20;99.90;;;;;;4897713;29;20223;-69
2021/01/05 11:34:21;;;;;;;8.88;5.43;;;4.20;99.90;;;;;;4892192;29;20216;-68
2021/01/05 11:36:47;;;;;;;7.97;7.03;;;4.20;99.90;;;;;;4898231;29;20215;-70
2021/01/05 11:39:14;;;;;;;5.72;5.32;;;4.30;99.90;;;;;;4898812;29;20642;-68
2021/01/05 11:41:43;;;;;;;7.15;5.50;;;4.20;99.90;;;;;;4897138;29;20227;-68
2021/01/05 11:44:09;;;;;;;6.70;6.18;;;4.30;99.90;;;;;;4899119;29;20660;-68
2021/01/05 11:46:36;;;;;;;6.20;5.70;;;4.30;99.90;;;;;;4898579;29;20218;-68
2021/01/05 11:49:03;;;;;;;8.00;5.05;;;4.30;99.90;;;;;;4898346;29;20212;-69
2021/01/05 11:51:31;;;;;;;9.10;5.93;;;4.30;99.90;;;;;;4898261;29;20231;-68
2021/01/05 11:53:57;;;;;;;5.10;4.70;;;4.30;99.90;;;;;;4886947;29;20593;-69
2021/01/05 11:56:25;;;;;;;5.90;4.50;;;4.30;99.90;;;;;;4898653;29;20684;-69
2021/01/05 11:58:52;;;;;;;8.80;6.05;;;4.30;99.90;;;;;;4892982;29;20203;-68
2021/01/05 12:01:18;;;;;;;6.38;5.60;;;4.30;99.90;;;;;;4897583;29;20235;-70
2021/01/05 12:03:45;;;;;;;5.82;5.32;;;4.30;99.90;;;;;;4898002;29;20222;-70
2021/01/05 12:06:13;;;;;;;7.30;6.38;;;4.30;99.90;;;;;;4899477;29;20287;-68
2021/01/05 12:08:40;;;;;;;5.43;4.90;;;4.30;99.90;;;;;;4897784;29;20219;-68
2021/01/05 12:11:06;;;;;;;7.30;6.20;;;4.40;99.90;;;;;;4898907;29;20270;-69
2021/01/05 12:13:32;;;;;;;6.38;5.70;;;4.30;99.90;;;;;;4897663;29;20282;-69
2021/01/05 12:15:58;;;;;;;5.95;5.20;;;4.30;99.90;;;;;;4898580;29;20485;-68
2021/01/05 12:18:24;;;;;;;7.93;5.22;;;4.30;99.90;;;;;;4897284;29;20215;-68
2021/01/05 12:20:51;;;;;;;6.13;5.15;;;4.40;99.90;;;;;;4897307;29;20270;-68
2021/01/05 12:23:17;;;;;;;7.68;6.57;;;4.30;99.90;;;;;;4897659;29;20324;-68
2021/01/05 12:25:43;;;;;;;8.02;6.70;;;4.40;99.90;;;;;;4903326;29;20615;-69
2021/01/05 12:28:10;;;;;;;5.88;5.47;;;4.40;99.90;;;;;;4916755;29;20318;-69
2021/01/05 12:30:40;;;;;;;5.82;4.93;;;4.40;99.90;;;;;;4896843;29;20231;-68
2021/01/05 12:33:06;;;;;;;6.40;5.85;;;4.40;99.90;;;;;;4898275;29;20222;-68
2021/01/05 12:35:32;;;;;;;6.72;6.03;;;4.40;99.90;;;;;;4894256;29;20212;-68
2021/01/05 12:37:59;;;;;;;7.30;6.53;;;4.40;99.90;;;;;;4883867;29;20282;-68
2021/01/05 12:40:25;;;;;;;9.40;5.80;;;4.40;99.90;;;;;;4894920;29;20227;-68
2021/01/05 12:42:51;;;;;;;9.13;5.97;;;4.40;99.90;;;;;;4897286;29;20215;-68
2021/01/05 12:45:17;;;;;;;7.15;5.97;;;4.40;99.90;;;;;;4898103;29;20244;-68
2021/01/05 12:47:43;;;;;;;10.25;6.72;;;4.40;99.90;;;;;;4897873;29;20294;-70
2021/01/05 12:50:11;;;;;;;7.82;7.03;;;4.40;99.90;;;;;;4897521;29;20731;-69
2021/01/05 12:52:37;;;;;;;7.47;6.70;;;4.40;99.90;;;;;;4896352;29;20203;-68
2021/01/05 12:55:05;;;;;;;8.63;7.40;;;4.50;99.90;;;;;;4897093;29;20683;-68
2021/01/05 12:57:31;;;;;;;6.47;5.97;;;4.50;99.90;;;;;;4897557;29;20212;-68
2021/01/05 12:59:59;;;;;;;5.85;5.30;;;4.50;99.90;;;;;;4897107;29;20299;-68
2021/01/05 13:02:31;;;;;;;9.10;6.40;;;4.50;99.90;;;;;;4896696;29;20231;-68
2021/01/05 13:04:57;;;;;;;5.35;4.90;;;4.50;99.90;;;;;;4896880;29;20262;-68
2021/01/05 13:07:23;;;;;;;6.95;6.35;;;4.50;99.90;;;;;;4897149;29;20267;-68
2021/01/05 13:09:53;;;;;;;7.20;6.10;;;4.50;99.90;;;;;;4895818;29;20306;-69
2021/01/05 13:12:21;;;;;;;6.63;5.70;;;4.50;99.90;;;;;;4895624;29;20612;-68
2021/01/05 13:14:47;;;;;;;8.27;5.75;;;4.60;99.90;;;;;;4891203;29;20295;-68
2021/01/05 13:17:14;;;;;;;6.90;6.05;;;4.60;99.90;;;;;;4897648;29;20279;-68
2021/01/05 13:19:40;;;;;;;6.07;5.53;;;4.60;99.90;;;;;;4896738;29;20203;-69
2021/01/05 13:22:06;;;;;;;6.47;5.45;;;4.60;99.90;;;;;;4896739;29;20235;-67
2021/01/05 13:24:33;;;;;;;7.20;5.97;;;4.60;99.90;;;;;;4896378;29;20250;-68
2021/01/05 13:27:01;;;;;;;6.35;5.45;;;4.60;99.90;;;;;;4897199;29;20215;-67
2021/01/05 13:29:30;;;;;;;5.57;4.95;;;4.60;99.90;;;;;;4896248;29;20668;-68
2021/01/05 13:31:59;;;;;;;6.30;5.85;;;4.50;99.90;;;;;;4887161;29;20254;-67
2021/01/05 13:34:27;;;;;;;6.22;5.63;;;4.50;99.90;;;;;;4896757;29;20208;-66
2021/01/05 13:36:55;;;;;;;4.60;4.18;;;4.50;99.90;;;;;;4896383;29;20207;-69
2021/01/05 13:39:22;;;;;;;5.00;4.60;;;4.50;99.90;;;;;;4896566;29;20655;-67
2021/01/05 13:41:48;;;;;;;6.13;5.63;;;4.50;99.90;;;;;;4895561;29;20227;-67
2021/01/05 13:44:14;;;;;;;11.20;6.03;;;4.50;99.90;;;;;;4896739;29;20646;-67
2021/01/05 13:46:42;;;;;;;5.93;5.32;;;4.50;99.90;;;;;;4896614;29;20283;-68
2021/01/05 13:49:13;;;;;;;5.28;4.47;;;4.50;99.90;;;;;;4896419;29;20668;-68
2021/01/05 13:51:41;;;;;;;4.43;4.03;;;4.50;99.90;;;;;;4881020;29;20257;-70
2021/01/05 13:54:08;;;;;;;4.95;4.55;;;4.50;99.90;;;;;;4895700;29;20207;-68
2021/01/05 13:56:34;;;;;;;5.28;4.80;;;4.50;99.90;;;;;;4896855;29;20834;-67
2021/01/05 13:59:01;;;;;;;4.97;4.68;;;4.50;99.90;;;;;;4896170;29;20210;-68
2021/01/05 14:01:27;;;;;;;5.30;4.80;;;4.50;99.90;;;;;;4896441;29;20239;-69
2021/01/05 14:03:56;;;;;;;6.93;5.85;;;4.50;99.90;;;;;;4896193;29;20203;-68
2021/01/05 14:06:24;;;;;;;6.30;5.70;;;4.50;99.90;;;;;;4896700;29;20207;-68
2021/01/05 14:08:51;;;;;;;12.50;6.00;;;4.50;99.90;;;;;;4895671;29;20223;-68
2021/01/05 14:11:20;;;;;;;9.25;5.60;;;4.50;99.90;;;;;;4896289;29;20223;-69
2021/01/05 14:13:46;;;;;;;4.70;4.18;;;4.50;99.90;;;;;;4896028;29;20211;-68
2021/01/05 14:16:14;;;;;;;10.82;5.57;;;4.50;99.90;;;;;;4896606;29;20211;-68
2021/01/05 14:18:44;;;;;;;6.85;5.95;;;4.50;99.90;;;;;;4895655;29;20253;-68
2021/01/05 14:21:11;;;;;;;10.60;5.65;;;4.40;99.90;;;;;;4896628;29;20231;-68
2021/01/05 14:23:37;;;;;;;6.60;4.97;;;4.50;99.90;;;;;;4894935;29;20261;-67
2021/01/05 14:26:04;;;;;;;8.27;5.63;;;4.50;99.90;;;;;;4896636;29;20267;-69
2021/01/05 14:28:31;;;;;;;6.82;4.50;;;4.50;99.90;;;;;;4896477;29;20211;-68
2021/01/05 14:30:57;;;;;;;6.30;5.68;;;4.40;99.90;;;;;;4895660;29;20219;-68
2021/01/05 14:33:23;;;;;;;5.93;5.25;;;4.40;99.90;;;;;;4894647;29;20350;-67
2021/01/05 14:35:49;;;;;;;5.80;5.00;;;4.50;99.90;;;;;;4896010;29;20207;-70
2021/01/05 14:38:16;;;;;;;8.48;5.93;;;4.50;99.90;;;;;;4895619;29;20256;-68
2021/01/05 14:40:45;;;;;;;6.53;6.03;;;4.50;99.90;;;;;;4895989;29;20290;-67
2021/01/05 14:43:11;;;;;;;5.50;4.97;;;4.50;99.90;;;;;;4899263;29;20210;-67
2021/01/05 14:45:39;;;;;;;7.65;5.75;;;4.50;99.90;;;;;;4900068;29;20211;-69
2021/01/05 14:48:06;;;;;;;6.70;6.10;;;4.50;99.90;;;;;;4898682;29;20215;-69
2021/01/05 14:50:32;;;;;;;9.95;6.88;;;4.50;99.90;;;;;;4899089;29;20238;-69
2021/01/05 14:52:58;;;;;;;6.25;5.70;;;4.50;99.90;;;;;;4898134;29;20234;-69
2021/01/05 14:55:25;;;;;;;6.85;5.90;;;4.50;99.90;;;;;;4899932;29;20211;-69
2021/01/05 14:57:51;;;;;;;6.30;5.70;;;4.50;99.90;;;;;;4899370;29;20208;-70
2021/01/05 15:00:23;;;;;;;8.75;7.00;;;4.50;99.90;;;;;;4899347;29;20226;-68
2021/01/05 15:02:49;;;;;;;7.60;6.82;;;4.60;99.90;;;;;;4898254;29;20222;-67
2021/01/05 15:05:15;;;;;;;6.35;5.72;;;4.50;99.90;;;;;;4900318;29;20196;-68
2021/01/05 15:07:41;;;;;;;7.88;7.18;;;4.50;99.90;;;;;;4899764;29;20219;-68
2021/01/05 15:10:08;;;;;;;7.38;6.65;;;4.60;99.90;;;;;;4899153;29;20207;-70
2021/01/05 15:12:35;;;;;;;7.70;6.63;;;4.60;99.90;;;;;;4899040;29;20211;-70
2021/01/05 15:15:01;;;;;;;6.22;5.65;;;4.60;99.90;;;;;;4888762;29;20262;-68
2021/01/05 15:17:27;;;;;;;6.20;5.70;;;4.60;99.90;;;;;;4899403;29;20210;-70
2021/01/05 15:19:53;;;;;;;6.80;6.20;;;4.50;99.90;;;;;;4899459;29;20207;-71
2021/01/05 15:22:20;;;;;;;9.18;5.65;;;4.60;99.90;;;;;;4898813;29;20258;-71
2021/01/05 15:24:46;;;;;;;7.57;6.55;;;4.60;99.90;;;;;;4899107;29;20567;-70
2021/01/05 15:27:12;;;;;;;7.20;6.50;;;4.60;99.90;;;;;;4899208;29;20214;-70
2021/01/05 15:29:39;;;;;;;5.35;4.80;;;4.60;99.90;;;;;;4899044;29;20862;-70
2021/01/05 15:32:06;;;;;;;6.80;6.10;;;4.60;99.90;;;;;;4898583;29;20251;-70
2021/01/05 15:34:32;;;;;;;7.50;5.07;;;4.60;99.90;;;;;;4896596;29;20219;-70
2021/01/05 15:36:58;;;;;;;5.90;5.45;;;4.60;99.90;;;;;;4881373;29;20208;-70
2021/01/05 15:39:26;;;;;;;5.90;5.45;;;4.60;99.90;;;;;;4892935;29;20524;-70
2021/01/05 15:41:54;;;;;;;5.10;3.92;;;4.60;99.90;;;;;;4898456;29;20235;-71
2021/01/05 15:44:22;;;;;;;6.03;5.18;;;4.60;99.90;;;;;;4897325;29;20358;-74
2021/01/05 15:46:52;;;;;;;6.13;5.72;;;4.60;99.90;;;;;;4899156;29;20683;-74
2021/01/05 15:49:19;;;;;;;8.82;5.55;;;4.60;99.90;;;;;;4899390;29;20694;-74
2021/01/05 15:51:45;;;;;;;6.68;5.97;;;4.60;99.90;;;;;;4891240;29;20256;-68
2021/01/05 15:54:12;;;;;;;8.60;5.35;;;4.60;99.90;;;;;;4883069;29;20215;-69
2021/01/05 15:56:39;;;;;;;5.63;5.10;;;4.60;99.90;;;;;;4898618;29;20211;-70
2021/01/05 15:59:06;;;;;;;6.50;5.18;;;4.60;99.90;;;;;;4898084;29;20211;-69
2021/01/05 16:01:36;;;;;;;8.48;6.25;;;4.60;99.90;;;;;;4898621;29;20242;-69
2021/01/05 16:04:03;;;;;;;6.47;5.97;;;4.60;99.90;;;;;;4896902;29;20234;-69
2021/01/05 16:06:31;;;;;;;6.70;6.20;;;4.60;99.90;;;;;;4898228;29;20569;-69
2021/01/05 16:09:00;;;;;;;6.85;6.15;;;4.60;99.90;;;;;;4896056;29;20223;-68
2021/01/05 16:11:27;;;;;;;9.50;6.93;;;4.60;99.90;;;;;;4898619;29;20266;-69
2021/01/05 16:13:53;;;;;;;7.28;6.10;;;4.60;99.90;;;;;;4897420;29;20208;-68
2021/01/05 16:16:20;;;;;;;8.20;5.03;;;4.60;99.90;;;;;;4898054;29;20211;-69
2021/01/05 16:18:46;;;;;;;16.17;9.18;;;4.60;99.90;;;;;;4897755;29;20207;-68
2021/01/05 16:21:13;;;;;;;10.25;7.57;;;4.60;99.90;;;;;;4898277;29;20231;-68
2021/01/05 16:23:39;;;;;;;7.57;6.88;;;4.60;99.90;;;;;;4896208;29;20215;-70
2021/01/05 16:26:06;;;;;;;5.80;5.18;;;4.60;99.90;;;;;;4898675;29;20207;-68
2021/01/05 16:28:32;;;;;;;6.25;5.75;;;4.60;99.90;;;;;;4897493;29;20701;-70
2021/01/05 16:30:59;;;;;;;9.60;6.63;;;4.60;99.90;;;;;;4898440;29;20299;-69
2021/01/05 16:33:26;;;;;;;6.60;6.00;;;4.60;99.90;;;;;;4897238;29;20212;-69
2021/01/05 16:35:52;;;;;;;6.30;5.13;;;4.60;99.90;;;;;;4898052;29;20544;-69
2021/01/05 16:38:20;;;;;;;10.38;6.13;;;4.60;99.90;;;;;;4897129;29;20222;-71
2021/01/05 16:40:46;;;;;;;6.10;5.65;;;4.60;99.90;;;;;;4898044;29;20624;-69
2021/01/05 16:43:14;;;;;;;6.80;5.28;;;4.60;99.90;;;;;;4897400;29;20307;-70
2021/01/05 16:45:40;;;;;;;5.43;4.90;;;4.60;99.90;;;;;;4898111;29;20218;-69
2021/01/05 16:48:07;;;;;;;4.97;4.57;;;4.60;99.90;;;;;;4897460;29;20207;-68
2021/01/05 16:50:34;;;;;;;6.40;4.90;;;4.60;99.90;;;;;;4881344;29;20631;-68
2021/01/05 16:53:01;;;;;;;3.72;3.63;;;4.60;99.90;;;;;;4896360;29;20863;-68
2021/01/05 16:55:28;;;;;;;6.07;5.57;;;4.60;99.90;;;;;;4897074;29;20744;-70
2021/01/05 16:57:55;;;;;;;5.55;5.07;;;4.60;99.90;;;;;;4897665;29;20631;-69
2021/01/05 17:00:23;;;;;;;5.63;4.78;;;4.60;99.90;;;;;;4896927;29;20223;-67
2021/01/05 17:02:50;;;;;;;5.03;4.63;;;4.60;99.90;;;;;;4886233;29;20246;-69
2021/01/05 17:05:18;;;;;;;5.32;4.85;;;4.60;99.90;;;;;;4895280;29;20219;-70
2021/01/05 17:07:47;;;;;;;6.05;4.60;;;4.60;99.90;;;;;;4895291;29;20203;-69
2021/01/05 17:10:13;;;;;;;5.45;4.95;;;4.60;99.90;;;;;;4893471;29;20293;-69
2021/01/05 17:12:40;;;;;;;8.35;5.22;;;4.60;99.90;;;;;;4904459;29;20214;-71
2021/01/05 17:15:08;;;;;;;6.60;5.32;;;4.60;99.90;;;;;;4914637;29;20227;-71
2021/01/05 17:17:39;;;;;;;6.32;5.75;;;4.60;99.90;;;;;;4909751;29;20246;-71
2021/01/05 17:20:07;;;;;;;5.82;5.30;;;4.60;99.90;;;;;;4906209;29;20200;-71
2021/01/05 17:22:33;;;;;;;6.03;5.53;;;4.60;99.90;;;;;;4906164;29;20675;-71
2021/01/05 17:24:59;;;;;;;6.20;5.22;;;4.60;99.90;;;;;;4905057;29;20398;-71
2021/01/05 17:27:25;;;;;;;6.20;3.72;;;4.70;99.90;;;;;;4898272;29;20621;-70
2021/01/05 17:29:52;;;;;;;7.10;6.50;;;4.70;99.90;;;;;;4894841;29;20289;-72
2021/01/05 17:32:18;;;;;;;5.90;5.28;;;4.70;99.90;;;;;;4893746;29;20257;-70
2021/01/05 17:34:45;;;;;;;3.83;3.50;;;4.70;99.90;;;;;;4895027;29;20210;-70
2021/01/05 17:37:12;;;;;;;6.47;5.00;;;4.70;99.90;;;;;;4894041;29;20219;-71
2021/01/05 17:39:38;;;;;;;6.28;4.95;;;4.70;99.90;;;;;;4894049;29;20601;-70
2021/01/05 17:42:07;;;;;;;7.43;5.60;;;4.70;99.90;;;;;;4892528;29;20744;-70
2021/01/05 17:44:33;;;;;;;5.25;4.68;;;4.70;99.90;;;;;;4894057;29;20215;-71
2021/01/05 17:47:00;;;;;;;6.18;4.57;;;4.70;99.90;;;;;;4893763;29;20969;-70
2021/01/05 17:49:26;;;;;;;5.15;4.80;;;4.70;99.90;;;;;;4893707;29;20282;-70
2021/01/05 17:51:53;;;;;;;5.57;4.95;;;4.70;99.90;;;;;;4892157;29;20223;-70